Time;durP1;ratioP1;P1;durP2;ratioP2;P2;SDS_P1;SDS_P2;PMS_P1;PMS_P2;Temp;Humidity;BMP_temperature;BMP_pressure;BME280_temperature;BME280_humidity;BME280_pressure;Samples;Min_cycle;Max_cycle;Signal;HPM_P1;HPM_P2
2022/09/02 00:00:59;;;;;;;0.00;0.00;;;;;;;;;;5050028;28;20037;-58
2022/09/02 00:03:25;;;;;;;0.00;0.00;;;;;;;;;;5049773;28;20059;-60
2022/09/02 00:05:50;;;;;;;0.10;0.10;;;;;;;;;;5050542;28;20021;-59
2022/09/02 00:08:15;;;;;;;0.00;0.00;;;;;;;;;;5050676;28;20027;-59
2022/09/02 00:10:41;;;;;;;0.00;0.00;;;;;;;;;;5049637;28;20482;-58
2022/09/02 00:13:08;;;;;;;0.00;0.00;;;;;;;;;;5050486;28;20044;-60
2022/09/02 00:15:33;;;;;;;0.00;0.00;;;;;;;;;;5050619;28;20462;-60
2022/09/02 00:17:59;;;;;;;0.00;0.00;;;;;;;;;;5052347;28;20021;-58
2022/09/02 00:20:25;;;;;;;0.00;0.00;;;;;;;;;;5051156;28;20029;-58
2022/09/02 00:22:50;;;;;;;0.00;0.00;;;;;;;;;;5053209;28;20059;-59
2022/09/02 00:25:16;;;;;;;0.03;0.03;;;;;;;;;;5053704;28;20021;-59
2022/09/02 00:27:41;;;;;;;0.10;0.10;;;;;;;;;;5053161;28;20013;-59
2022/09/02 00:30:07;;;;;;;0.00;0.00;;;;;;;;;;5051506;28;21562;-57
2022/09/02 00:32:32;;;;;;;0.00;0.00;;;;;;;;;;5051115;28;20104;-57
2022/09/02 00:34:57;;;;;;;0.00;0.00;;;;;;;;;;5051324;28;20332;-59
2022/09/02 00:37:24;;;;;;;0.00;0.00;;;;;;;;;;5051426;28;20522;-59
2022/09/02 00:39:50;;;;;;;0.00;0.00;;;;;;;;;;5051375;28;20024;-58
2022/09/02 00:42:15;;;;;;;0.00;0.00;;;;;;;;;;5050865;28;20039;-59
2022/09/02 00:44:41;;;;;;;0.00;0.00;;;;;;;;;;5051199;28;20017;-58
2022/09/02 00:47:06;;;;;;;0.00;0.00;;;;;;;;;;5051055;28;20930;-59
2022/09/02 00:49:32;;;;;;;0.00;0.00;;;;;;;;;;5049537;28;20031;-59
2022/09/02 00:52:01;;;;;;;0.40;0.40;;;;;;;;;;5052093;28;20100;-57
2022/09/02 00:54:28;;;;;;;0.43;0.10;;;;;;;;;;5050083;28;20016;-58
2022/09/02 00:56:55;;;;;;;0.00;0.00;;;;;;;;;;5050831;28;20069;-58
2022/09/02 00:59:22;;;;;;;0.00;0.00;;;;;;;;;;5050809;28;20070;-57
2022/09/02 01:01:48;;;;;;;0.30;0.30;;;;;;;;;;5050444;28;20033;-57
2022/09/02 01:04:13;;;;;;;0.00;0.00;;;;;;;;;;5048976;28;20027;-59
2022/09/02 01:06:39;;;;;;;0.45;0.45;;;;;;;;;;5050644;28;20379;-58
2022/09/02 01:09:08;;;;;;;0.00;0.00;;;;;;;;;;5050785;28;20029;-58
2022/09/02 01:11:41;;;;;;;0.00;0.00;;;;;;;;;;5050122;28;20013;-57
2022/09/02 01:14:08;;;;;;;0.00;0.00;;;;;;;;;;5049650;28;20385;-57
2022/09/02 01:16:37;;;;;;;0.00;0.00;;;;;;;;;;5050150;28;20021;-58
2022/09/02 01:19:05;;;;;;;0.00;0.00;;;;;;;;;;5049346;28;20437;-58
2022/09/02 01:21:30;;;;;;;0.00;0.00;;;;;;;;;;5050079;28;20171;-58
2022/09/02 01:23:55;;;;;;;0.00;0.00;;;;;;;;;;5050160;28;20104;-58
2022/09/02 01:26:21;;;;;;;0.00;0.00;;;;;;;;;;5050433;28;20415;-58
2022/09/02 01:28:46;;;;;;;0.00;0.00;;;;;;;;;;5050414;28;20032;-57
2022/09/02 01:31:11;;;;;;;0.00;0.00;;;;;;;;;;5048946;28;20087;-58
2022/09/02 01:33:37;;;;;;;0.00;0.00;;;;;;;;;;5050317;28;20116;-59
2022/09/02 01:36:03;;;;;;;0.00;0.00;;;;;;;;;;5050278;28;20108;-59
2022/09/02 01:38:29;;;;;;;0.00;0.00;;;;;;;;;;5049597;28;20036;-59
2022/09/02 01:40:54;;;;;;;0.00;0.00;;;;;;;;;;5053283;28;20048;-59
2022/09/02 01:43:21;;;;;;;0.00;0.00;;;;;;;;;;5049987;28;20059;-59
2022/09/02 01:45:47;;;;;;;0.00;0.00;;;;;;;;;;5051727;28;20068;-58
2022/09/02 01:48:13;;;;;;;0.00;0.00;;;;;;;;;;5049985;28;20464;-58
2022/09/02 01:50:40;;;;;;;0.00;0.00;;;;;;;;;;5049989;28;20532;-58
2022/09/02 01:53:05;;;;;;;0.00;0.00;;;;;;;;;;5050943;28;20036;-58
2022/09/02 01:55:31;;;;;;;0.00;0.00;;;;;;;;;;5050123;28;20029;-58
2022/09/02 01:57:57;;;;;;;0.00;0.00;;;;;;;;;;5049812;28;20051;-58
2022/09/02 02:00:23;;;;;;;0.00;0.00;;;;;;;;;;5048856;28;20021;-58
2022/09/02 02:02:48;;;;;;;0.00;0.00;;;;;;;;;;5050151;28;20108;-57
2022/09/02 02:05:14;;;;;;;0.00;0.00;;;;;;;;;;5048874;28;20537;-60
2022/09/02 02:07:41;;;;;;;0.00;0.00;;;;;;;;;;5049657;28;20021;-59
2022/09/02 02:10:09;;;;;;;0.00;0.00;;;;;;;;;;5049632;28;20090;-58
2022/09/02 02:12:34;;;;;;;0.00;0.00;;;;;;;;;;5050423;28;20048;-58
2022/09/02 02:15:00;;;;;;;0.00;0.00;;;;;;;;;;5049031;28;20028;-57
2022/09/02 02:17:26;;;;;;;0.00;0.00;;;;;;;;;;5048768;28;20024;-58
2022/09/02 02:19:51;;;;;;;0.00;0.00;;;;;;;;;;5049388;28;20024;-59
2022/09/02 02:22:16;;;;;;;0.00;0.00;;;;;;;;;;5049328;28;20136;-59
2022/09/02 02:24:41;;;;;;;0.00;0.00;;;;;;;;;;5050579;28;20043;-59
2022/09/02 02:27:07;;;;;;;0.00;0.00;;;;;;;;;;5049888;28;20039;-58
2022/09/02 02:29:32;;;;;;;0.00;0.00;;;;;;;;;;5047737;28;20032;-59
2022/09/02 02:31:57;;;;;;;0.00;0.00;;;;;;;;;;5049701;28;20029;-58
2022/09/02 02:34:22;;;;;;;0.00;0.00;;;;;;;;;;5048801;28;20060;-58
2022/09/02 02:36:48;;;;;;;0.00;0.00;;;;;;;;;;5049425;28;20040;-58
2022/09/02 02:39:13;;;;;;;0.00;0.00;;;;;;;;;;5049224;28;20613;-58
2022/09/02 02:41:39;;;;;;;0.00;0.00;;;;;;;;;;5051150;28;20025;-59
2022/09/02 02:44:04;;;;;;;0.00;0.00;;;;;;;;;;5049525;28;20021;-58
2022/09/02 02:46:30;;;;;;;0.00;0.00;;;;;;;;;;5049043;28;20128;-57
2022/09/02 02:48:57;;;;;;;0.00;0.00;;;;;;;;;;5049159;28;20050;-58
2022/09/02 02:51:23;;;;;;;0.00;0.00;;;;;;;;;;5048924;28;20040;-57
2022/09/02 02:53:48;;;;;;;0.00;0.00;;;;;;;;;;5049507;28;20017;-58
2022/09/02 02:56:13;;;;;;;0.00;0.00;;;;;;;;;;5046978;28;20382;-57
2022/09/02 02:58:38;;;;;;;0.00;0.00;;;;;;;;;;5049482;28;20029;-58
2022/09/02 03:01:04;;;;;;;0.00;0.00;;;;;;;;;;5049079;28;20482;-57
2022/09/02 03:03:30;;;;;;;0.00;0.00;;;;;;;;;;5048953;28;20021;-57
2022/09/02 03:05:56;;;;;;;0.00;0.00;;;;;;;;;;5048974;28;20036;-58
2022/09/02 03:08:21;;;;;;;0.00;0.00;;;;;;;;;;5048700;28;20025;-58
2022/09/02 03:10:50;;;;;;;0.00;0.00;;;;;;;;;;5051212;28;20113;-58
2022/09/02 03:13:16;;;;;;;1.55;1.52;;;;;;;;;;5048718;28;20083;-57
2022/09/02 03:15:41;;;;;;;0.00;0.00;;;;;;;;;;5048060;28;20028;-57
2022/09/02 03:18:07;;;;;;;0.00;0.00;;;;;;;;;;5051341;28;20052;-57
2022/09/02 03:20:33;;;;;;;0.00;0.00;;;;;;;;;;5052552;28;20086;-58
2022/09/02 03:22:58;;;;;;;0.00;0.00;;;;;;;;;;5052757;28;20446;-59
2022/09/02 03:25:25;;;;;;;0.00;0.00;;;;;;;;;;5051955;28;20135;-58
2022/09/02 03:27:51;;;;;;;0.00;0.00;;;;;;;;;;5052610;28;20021;-58
2022/09/02 03:30:18;;;;;;;0.00;0.00;;;;;;;;;;5051336;28;20055;-58
2022/09/02 03:32:43;;;;;;;0.00;0.00;;;;;;;;;;5053102;28;20025;-58
2022/09/02 03:35:10;;;;;;;0.00;0.00;;;;;;;;;;5052869;28;20505;-58
2022/09/02 03:37:36;;;;;;;0.22;0.22;;;;;;;;;;5052322;28;20032;-59
2022/09/02 03:40:02;;;;;;;0.00;0.00;;;;;;;;;;5053159;28;20025;-58
2022/09/02 03:42:28;;;;;;;0.00;0.00;;;;;;;;;;5052760;28;20020;-57
2022/09/02 03:44:53;;;;;;;0.00;0.00;;;;;;;;;;5052574;28;20117;-57
2022/09/02 03:47:20;;;;;;;0.00;0.00;;;;;;;;;;5052373;28;20074;-58
2022/09/02 03:49:45;;;;;;;0.00;0.00;;;;;;;;;;5052801;28;20095;-58
2022/09/02 03:52:10;;;;;;;0.00;0.00;;;;;;;;;;5052939;28;20036;-57
2022/09/02 03:54:36;;;;;;;0.00;0.00;;;;;;;;;;5052509;28;20040;-57
2022/09/02 03:57:01;;;;;;;0.00;0.00;;;;;;;;;;5052279;28;20191;-59
2022/09/02 03:59:26;;;;;;;0.00;0.00;;;;;;;;;;5051879;28;20024;-58
2022/09/02 04:01:51;;;;;;;0.00;0.00;;;;;;;;;;5052399;28;20036;-58
2022/09/02 04:04:17;;;;;;;0.00;0.00;;;;;;;;;;5053171;28;20021;-57
2022/09/02 04:06:43;;;;;;;0.00;0.00;;;;;;;;;;5053541;28;20118;-58
2022/09/02 04:09:08;;;;;;;0.00;0.00;;;;;;;;;;5054180;28;20028;-58
2022/09/02 04:11:33;;;;;;;0.00;0.00;;;;;;;;;;5052294;28;20032;-58
2022/09/02 04:13:58;;;;;;;0.03;0.03;;;;;;;;;;5054059;28;20029;-58
2022/09/02 04:22:30;;;;;;;0.00;0.00;;;;;;;;;;5051146;28;20489;-59
2022/09/02 04:24:55;;;;;;;0.00;0.00;;;;;;;;;;5065869;28;20021;-58
2022/09/02 04:27:20;;;;;;;0.00;0.00;;;;;;;;;;5053337;28;20074;-58
2022/09/02 04:29:45;;;;;;;0.43;0.43;;;;;;;;;;5051337;28;20531;-57
2022/09/02 04:32:11;;;;;;;7.38;7.13;;;;;;;;;;5051991;28;20051;-57
2022/09/02 04:34:36;;;;;;;0.10;0.10;;;;;;;;;;5051053;28;20021;-58
2022/09/02 04:37:01;;;;;;;0.00;0.00;;;;;;;;;;5051347;28;20043;-58
2022/09/02 04:39:26;;;;;;;0.00;0.00;;;;;;;;;;5051151;28;20601;-58
2022/09/02 04:41:52;;;;;;;0.10;0.10;;;;;;;;;;5051311;28;20112;-57
2022/09/02 04:44:18;;;;;;;0.10;0.10;;;;;;;;;;5050841;28;20025;-57
2022/09/02 04:46:43;;;;;;;0.00;0.00;;;;;;;;;;5052823;28;20056;-59
2022/09/02 04:49:08;;;;;;;0.00;0.00;;;;;;;;;;5051044;28;20033;-58
2022/09/02 04:51:33;;;;;;;0.00;0.00;;;;;;;;;;5049998;28;20274;-58
2022/09/02 04:53:59;;;;;;;0.00;0.00;;;;;;;;;;5050694;28;20021;-58
2022/09/02 04:56:26;;;;;;;0.00;0.00;;;;;;;;;;5050238;28;20044;-58
2022/09/02 04:58:52;;;;;;;0.00;0.00;;;;;;;;;;5050720;28;20021;-58
2022/09/02 05:01:19;;;;;;;0.30;0.30;;;;;;;;;;5051151;28;20043;-58
2022/09/02 05:03:45;;;;;;;0.00;0.00;;;;;;;;;;5052597;28;20079;-56
2022/09/02 05:06:12;;;;;;;0.00;0.00;;;;;;;;;;5050650;28;20021;-58
2022/09/02 05:08:37;;;;;;;0.00;0.00;;;;;;;;;;5051816;28;20338;-58
2022/09/02 05:11:09;;;;;;;0.43;0.10;;;;;;;;;;5050675;28;20021;-58
2022/09/02 05:13:35;;;;;;;0.00;0.00;;;;;;;;;;5050550;28;20033;-58
2022/09/02 05:16:00;;;;;;;0.00;0.00;;;;;;;;;;5050740;28;20021;-59
2022/09/02 05:18:25;;;;;;;0.30;0.30;;;;;;;;;;5050311;28;20021;-59
2022/09/02 05:20:51;;;;;;;0.00;0.00;;;;;;;;;;5049891;28;20021;-59
2022/09/02 05:23:16;;;;;;;0.00;0.00;;;;;;;;;;5050244;28;20017;-58
2022/09/02 05:25:41;;;;;;;0.00;0.00;;;;;;;;;;5049947;28;20024;-58
2022/09/02 05:28:10;;;;;;;0.00;0.00;;;;;;;;;;5050437;28;20112;-58
2022/09/02 05:30:36;;;;;;;0.00;0.00;;;;;;;;;;5050180;28;20051;-59
2022/09/02 05:33:01;;;;;;;0.25;0.25;;;;;;;;;;5050537;28;20432;-58
2022/09/02 05:35:27;;;;;;;0.00;0.00;;;;;;;;;;5050769;28;20470;-59
2022/09/02 05:37:52;;;;;;;0.05;0.05;;;;;;;;;;5049867;28;20449;-58
2022/09/02 05:40:17;;;;;;;0.00;0.00;;;;;;;;;;5048935;28;20033;-58
2022/09/02 05:42:42;;;;;;;0.00;0.00;;;;;;;;;;5049115;28;20111;-59
2022/09/02 05:45:08;;;;;;;0.00;0.00;;;;;;;;;;5049784;28;20025;-60
2022/09/02 05:47:33;;;;;;;0.00;0.00;;;;;;;;;;5051832;28;20052;-58
2022/09/02 05:50:00;;;;;;;0.00;0.00;;;;;;;;;;5052920;28;20036;-59
2022/09/02 05:52:26;;;;;;;0.00;0.00;;;;;;;;;;5053317;28;20028;-59
2022/09/02 05:54:51;;;;;;;0.28;0.28;;;;;;;;;;5053484;28;20021;-59
2022/09/02 05:57:17;;;;;;;0.00;0.00;;;;;;;;;;5052026;28;20088;-59
2022/09/02 05:59:43;;;;;;;0.00;0.00;;;;;;;;;;5050710;28;20027;-59
2022/09/02 06:02:10;;;;;;;0.00;0.00;;;;;;;;;;5052788;28;20025;-58
2022/09/02 06:04:36;;;;;;;0.00;0.00;;;;;;;;;;5049156;28;20021;-59
2022/09/02 06:07:01;;;;;;;0.00;0.00;;;;;;;;;;5048867;28;20081;-59
2022/09/02 06:09:26;;;;;;;0.00;0.00;;;;;;;;;;5048234;28;20112;-58
2022/09/02 06:11:52;;;;;;;0.00;0.00;;;;;;;;;;5048987;28;20103;-57
2022/09/02 06:14:18;;;;;;;0.00;0.00;;;;;;;;;;5048550;28;20036;-58
2022/09/02 06:16:44;;;;;;;0.00;0.00;;;;;;;;;;5048092;28;20172;-58
2022/09/02 06:19:09;;;;;;;0.00;0.00;;;;;;;;;;5046811;28;20033;-59
2022/09/02 06:21:35;;;;;;;0.05;0.05;;;;;;;;;;5047779;28;20640;-59
2022/09/02 06:24:03;;;;;;;0.00;0.00;;;;;;;;;;5048256;28;20036;-59
2022/09/02 06:26:28;;;;;;;0.63;0.47;;;;;;;;;;5048053;28;20357;-59
2022/09/02 06:28:53;;;;;;;0.00;0.00;;;;;;;;;;5048908;28;20021;-59
2022/09/02 06:31:20;;;;;;;0.00;0.00;;;;;;;;;;5048722;28;20109;-58
2022/09/02 06:33:46;;;;;;;0.00;0.00;;;;;;;;;;5048102;28;20032;-58
2022/09/02 06:36:13;;;;;;;2.45;1.30;;;;;;;;;;5047955;28;20036;-59
2022/09/02 06:38:39;;;;;;;0.00;0.00;;;;;;;;;;5047725;28;20108;-59
2022/09/02 06:41:05;;;;;;;0.03;0.00;;;;;;;;;;5048796;28;20116;-59
2022/09/02 06:43:30;;;;;;;0.57;0.57;;;;;;;;;;5047620;28;20040;-60
2022/09/02 06:45:55;;;;;;;0.00;0.00;;;;;;;;;;5048284;28;20021;-60
2022/09/02 06:48:21;;;;;;;1.98;0.85;;;;;;;;;;5046848;28;20024;-59
2022/09/02 06:50:46;;;;;;;0.15;0.15;;;;;;;;;;5047555;28;20024;-59
2022/09/02 06:53:12;;;;;;;0.10;0.10;;;;;;;;;;5051212;28;20127;-59
2022/09/02 06:55:39;;;;;;;0.30;0.30;;;;;;;;;;5051738;28;20445;-59
2022/09/02 06:58:05;;;;;;;0.00;0.00;;;;;;;;;;5051709;28;20417;-60
2022/09/02 07:00:31;;;;;;;0.00;0.00;;;;;;;;;;5051465;28;20017;-59
2022/09/02 07:05:41;;;;;;;0.00;0.00;;;;;;;;;;5051195;28;20039;-60
2022/09/02 07:08:06;;;;;;;0.00;0.00;;;;;;;;;;5051842;28;20115;-60
2022/09/02 07:10:31;;;;;;;0.00;0.00;;;;;;;;;;5050814;28;20033;-58
2022/09/02 07:12:56;;;;;;;0.20;0.20;;;;;;;;;;5051427;28;20037;-58
2022/09/02 07:15:21;;;;;;;0.00;0.00;;;;;;;;;;5050803;28;20025;-59
2022/09/02 07:17:48;;;;;;;0.00;0.00;;;;;;;;;;5051012;28;20029;-60
2022/09/02 07:20:14;;;;;;;0.00;0.00;;;;;;;;;;5051337;28;20488;-59
2022/09/02 07:22:39;;;;;;;0.00;0.00;;;;;;;;;;5051131;28;20028;-58
2022/09/02 07:25:05;;;;;;;0.00;0.00;;;;;;;;;;5051663;28;20025;-59
2022/09/02 07:27:30;;;;;;;0.00;0.00;;;;;;;;;;5051120;28;20462;-59
2022/09/02 07:29:56;;;;;;;0.00;0.00;;;;;;;;;;5051437;28;20469;-59
2022/09/02 07:32:21;;;;;;;0.00;0.00;;;;;;;;;;5051526;28;20267;-59
2022/09/02 07:34:46;;;;;;;0.00;0.00;;;;;;;;;;5051316;28;20025;-59
2022/09/02 07:37:12;;;;;;;0.32;0.32;;;;;;;;;;5050168;28;20116;-59
2022/09/02 07:39:37;;;;;;;0.00;0.00;;;;;;;;;;5050879;28;20625;-58
2022/09/02 07:42:03;;;;;;;0.00;0.00;;;;;;;;;;5051097;28;20021;-59
2022/09/02 07:44:28;;;;;;;0.00;0.00;;;;;;;;;;5049900;28;20382;-59
2022/09/02 07:46:55;;;;;;;0.00;0.00;;;;;;;;;;5050882;28;20037;-59
2022/09/02 07:49:20;;;;;;;0.00;0.00;;;;;;;;;;5051463;28;20056;-59
2022/09/02 07:51:48;;;;;;;0.52;0.45;;;;;;;;;;5050397;28;20063;-59
2022/09/02 07:54:13;;;;;;;0.00;0.00;;;;;;;;;;5050815;28;20048;-59
2022/09/02 07:56:39;;;;;;;0.10;0.10;;;;;;;;;;5050149;28;20419;-59
2022/09/02 07:59:04;;;;;;;0.00;0.00;;;;;;;;;;5050547;28;20111;-59
2022/09/02 08:01:30;;;;;;;0.00;0.00;;;;;;;;;;5050283;28;20025;-61
2022/09/02 08:03:55;;;;;;;0.00;0.00;;;;;;;;;;5049883;28;20035;-60
2022/09/02 08:06:25;;;;;;;0.00;0.00;;;;;;;;;;5050790;28;20017;-59
2022/09/02 08:08:51;;;;;;;0.30;0.20;;;;;;;;;;5050351;28;20017;-60
2022/09/02 08:11:16;;;;;;;0.00;0.00;;;;;;;;;;5050900;28;20032;-60
2022/09/02 08:13:41;;;;;;;0.00;0.00;;;;;;;;;;5049260;28;20318;-60
2022/09/02 08:16:07;;;;;;;0.00;0.00;;;;;;;;;;5050377;28;20032;-60
2022/09/02 08:18:32;;;;;;;0.30;0.30;;;;;;;;;;5050019;28;20305;-60
2022/09/02 08:20:58;;;;;;;0.10;0.10;;;;;;;;;;5050676;28;20028;-60
2022/09/02 08:23:23;;;;;;;0.00;0.00;;;;;;;;;;5050143;28;20021;-60
2022/09/02 08:25:48;;;;;;;0.00;0.00;;;;;;;;;;5049685;28;20134;-59
2022/09/02 08:28:14;;;;;;;0.00;0.00;;;;;;;;;;5050470;28;20029;-59
2022/09/02 08:30:39;;;;;;;0.10;0.10;;;;;;;;;;5049714;28;20267;-60
2022/09/02 08:33:05;;;;;;;0.00;0.00;;;;;;;;;;5050176;28;20035;-59
2022/09/02 08:35:30;;;;;;;0.00;0.00;;;;;;;;;;5049894;28;20151;-60
2022/09/02 08:37:59;;;;;;;0.00;0.00;;;;;;;;;;5050006;28;20033;-59
2022/09/02 08:40:27;;;;;;;0.13;0.13;;;;;;;;;;5050473;28;20024;-60
2022/09/02 08:42:53;;;;;;;0.00;0.00;;;;;;;;;;5049227;28;20036;-60
2022/09/02 08:45:24;;;;;;;0.00;0.00;;;;;;;;;;5050164;28;20354;-60
2022/09/02 08:47:57;;;;;;;0.00;0.00;;;;;;;;;;5049519;28;20030;-60
2022/09/02 08:50:22;;;;;;;2.28;1.08;;;;;;;;;;5050103;28;20656;-60
2022/09/02 08:52:56;;;;;;;0.00;0.00;;;;;;;;;;5049200;28;20025;-60
2022/09/02 08:55:27;;;;;;;0.00;0.00;;;;;;;;;;5050062;28;20429;-60
2022/09/02 08:57:55;;;;;;;0.00;0.00;;;;;;;;;;5049262;28;20075;-59
2022/09/02 09:00:20;;;;;;;0.00;0.00;;;;;;;;;;5049687;28;20347;-59
2022/09/02 09:03:15;;;;;;;0.00;0.00;;;;;;;;;;5048967;28;20036;-60
2022/09/02 09:05:43;;;;;;;0.00;0.00;;;;;;;;;;5010493;28;20053;-59
2022/09/02 09:08:09;;;;;;;0.00;0.00;;;;;;;;;;5049619;28;20040;-59
2022/09/02 09:10:38;;;;;;;0.00;0.00;;;;;;;;;;5048075;28;20025;-60
2022/09/02 09:13:10;;;;;;;0.10;0.10;;;;;;;;;;5048708;28;20057;-58
2022/09/02 09:15:38;;;;;;;0.10;0.10;;;;;;;;;;5048424;28;20044;-59
2022/09/02 09:18:05;;;;;;;0.00;0.00;;;;;;;;;;5047562;28;20021;-59
2022/09/02 09:20:32;;;;;;;0.00;0.00;;;;;;;;;;5048728;28;20114;-59
2022/09/02 09:23:17;;;;;;;0.00;0.00;;;;;;;;;;5047565;28;20044;-59
2022/09/02 09:25:43;;;;;;;0.73;0.65;;;;;;;;;;5048749;28;20027;-59
2022/09/02 09:28:08;;;;;;;0.47;0.47;;;;;;;;;;5049148;28;20028;-59
2022/09/02 09:30:34;;;;;;;0.43;0.07;;;;;;;;;;5048416;28;20029;-59
2022/09/02 09:32:59;;;;;;;0.00;0.00;;;;;;;;;;5049111;28;20274;-59
2022/09/02 09:35:25;;;;;;;0.00;0.00;;;;;;;;;;5049269;28;20032;-59
2022/09/02 09:37:51;;;;;;;0.52;0.52;;;;;;;;;;5048031;28;20363;-59
2022/09/02 09:40:16;;;;;;;0.17;0.17;;;;;;;;;;5048180;28;20035;-59
2022/09/02 09:42:42;;;;;;;0.00;0.00;;;;;;;;;;5048259;28;20446;-59
2022/09/02 09:45:17;;;;;;;0.00;0.00;;;;;;;;;;5048816;28;20262;-59
2022/09/02 09:47:42;;;;;;;0.00;0.00;;;;;;;;;;5048536;28;20063;-59
2022/09/02 09:50:25;;;;;;;0.00;0.00;;;;;;;;;;5048449;28;20116;-60
2022/09/02 09:52:50;;;;;;;0.00;0.00;;;;;;;;;;5048135;28;20086;-60
2022/09/02 09:55:17;;;;;;;0.00;0.00;;;;;;;;;;5048621;28;20020;-60
2022/09/02 09:57:44;;;;;;;0.32;0.32;;;;;;;;;;5047934;28;20055;-61
2022/09/02 10:00:20;;;;;;;0.50;0.13;;;;;;;;;;5048741;28;20466;-59
2022/09/02 10:02:47;;;;;;;0.75;0.75;;;;;;;;;;5048344;28;20532;-59
2022/09/02 10:05:17;;;;;;;0.00;0.00;;;;;;;;;;5048422;28;20025;-60
2022/09/02 10:07:42;;;;;;;0.00;0.00;;;;;;;;;;5047237;28;20752;-60
2022/09/02 10:10:10;;;;;;;0.08;0.08;;;;;;;;;;5046074;28;20120;-60
2022/09/02 10:12:36;;;;;;;0.55;0.55;;;;;;;;;;5047081;28;20047;-60
2022/09/02 10:15:01;;;;;;;1.77;0.20;;;;;;;;;;5048601;28;20641;-59
2022/09/02 10:17:32;;;;;;;0.45;0.45;;;;;;;;;;5048280;28;20428;-59
2022/09/02 10:20:11;;;;;;;0.00;0.00;;;;;;;;;;5048493;28;20446;-59
2022/09/02 10:22:40;;;;;;;0.00;0.00;;;;;;;;;;5046790;28;20020;-59
2022/09/02 10:25:24;;;;;;;0.10;0.00;;;;;;;;;;5046373;28;20025;-59
2022/09/02 10:27:49;;;;;;;0.20;0.20;;;;;;;;;;5052796;28;20024;-60
2022/09/02 10:30:19;;;;;;;0.10;0.10;;;;;;;;;;5054881;28;20373;-61
2022/09/02 10:32:55;;;;;;;0.17;0.17;;;;;;;;;;5054559;28;20028;-60
2022/09/02 10:35:40;;;;;;;0.00;0.00;;;;;;;;;;5055047;28;20454;-60
2022/09/02 10:38:24;;;;;;;0.00;0.00;;;;;;;;;;5053893;28;20028;-59
2022/09/02 10:40:53;;;;;;;0.00;0.00;;;;;;;;;;5054557;28;20035;-59
2022/09/02 10:43:37;;;;;;;0.30;0.30;;;;;;;;;;5054813;28;20111;-61
2022/09/02 10:46:05;;;;;;;0.25;0.10;;;;;;;;;;5054908;28;20062;-60
2022/09/02 10:48:31;;;;;;;0.75;0.75;;;;;;;;;;5054820;28;20031;-61
2022/09/02 10:51:02;;;;;;;0.80;0.60;;;;;;;;;;5052734;28;20021;-60
2022/09/02 10:53:46;;;;;;;0.00;0.00;;;;;;;;;;5054918;28;20029;-61
2022/09/02 10:56:25;;;;;;;0.00;0.00;;;;;;;;;;5054760;28;20028;-60
2022/09/02 10:59:05;;;;;;;0.10;0.10;;;;;;;;;;5053952;28;20059;-60
2022/09/02 11:01:35;;;;;;;0.00;0.00;;;;;;;;;;5053285;28;20107;-60
2022/09/02 11:04:01;;;;;;;3.00;1.02;;;;;;;;;;5054723;28;20056;-60
2022/09/02 11:06:31;;;;;;;0.17;0.17;;;;;;;;;;5053249;28;20044;-61
2022/09/02 11:09:00;;;;;;;0.00;0.00;;;;;;;;;;5054049;28;20025;-60
2022/09/02 11:11:36;;;;;;;0.00;0.00;;;;;;;;;;5054828;28;20466;-60
2022/09/02 11:14:01;;;;;;;0.65;0.65;;;;;;;;;;5054100;28;20017;-60
2022/09/02 11:16:35;;;;;;;0.52;0.32;;;;;;;;;;5054675;28;20535;-60
2022/09/02 11:19:13;;;;;;;0.00;0.00;;;;;;;;;;5053421;28;20029;-60
2022/09/02 11:21:41;;;;;;;0.15;0.15;;;;;;;;;;5052974;28;20082;-60
2022/09/02 11:24:14;;;;;;;0.10;0.10;;;;;;;;;;5054267;28;20029;-61
2022/09/02 11:26:41;;;;;;;0.20;0.20;;;;;;;;;;5052613;28;20020;-60
2022/09/02 11:29:13;;;;;;;0.50;0.32;;;;;;;;;;5054444;28;20044;-60
2022/09/02 11:31:41;;;;;;;0.10;0.10;;;;;;;;;;5053997;28;20477;-60
2022/09/02 11:34:33;;;;;;;0.00;0.00;;;;;;;;;;5054554;28;20079;-60
2022/09/02 11:36:59;;;;;;;0.55;0.28;;;;;;;;;;5050814;28;20109;-59
2022/09/02 11:39:29;;;;;;;0.30;0.30;;;;;;;;;;5051082;28;20036;-59
2022/09/02 11:42:02;;;;;;;0.00;0.00;;;;;;;;;;5051343;28;20025;-59
2022/09/02 11:44:51;;;;;;;0.10;0.10;;;;;;;;;;5052243;28;20126;-59
2022/09/02 11:47:29;;;;;;;0.00;0.00;;;;;;;;;;5050833;28;20029;-59
2022/09/02 11:50:13;;;;;;;0.15;0.05;;;;;;;;;;5050890;28;20037;-60
2022/09/02 11:52:41;;;;;;;0.05;0.05;;;;;;;;;;5050848;28;20057;-60
2022/09/02 11:55:15;;;;;;;2.40;0.55;;;;;;;;;;5051105;28;20036;-59
2022/09/02 11:57:40;;;;;;;0.00;0.00;;;;;;;;;;5049692;28;20445;-59
2022/09/02 12:00:07;;;;;;;0.52;0.52;;;;;;;;;;5051184;28;20029;-59
2022/09/02 12:02:32;;;;;;;1.33;1.33;;;;;;;;;;5050613;28;20025;-60
2022/09/02 12:05:38;;;;;;;0.10;0.10;;;;;;;;;;5049504;28;20027;-59
2022/09/02 12:08:10;;;;;;;0.32;0.32;;;;;;;;;;5027212;28;20745;-60
2022/09/02 12:10:42;;;;;;;0.00;0.00;;;;;;;;;;5027355;28;20028;-60
2022/09/02 12:13:08;;;;;;;0.00;0.00;;;;;;;;;;5028283;28;20033;-59
2022/09/02 12:15:34;;;;;;;0.90;0.90;;;;;;;;;;5028333;28;20079;-59
2022/09/02 12:18:09;;;;;;;0.00;0.00;;;;;;;;;;5026287;28;20037;-59
2022/09/02 12:20:38;;;;;;;1.25;0.55;;;;;;;;;;5027455;28;20037;-58
2022/09/02 12:23:04;;;;;;;;;;;;;;;;;;5030091;28;20021;-60
2022/09/02 12:25:31;;;;;;;0.00;0.00;;;;;;;;;;5028586;28;20004;-59
2022/09/02 12:28:14;;;;;;;0.00;0.00;;;;;;;;;;5027838;28;20029;-60
2022/09/02 12:31:09;;;;;;;0.13;0.10;;;;;;;;;;5026918;28;20487;-59
2022/09/02 12:33:37;;;;;;;0.03;0.03;;;;;;;;;;5015264;28;20752;-60
2022/09/02 12:36:03;;;;;;;0.00;0.00;;;;;;;;;;5027680;28;20025;-59
2022/09/02 12:38:32;;;;;;;1.02;1.02;;;;;;;;;;5035870;28;20090;-59
2022/09/02 12:40:57;;;;;;;0.17;0.17;;;;;;;;;;5049897;28;20029;-59
2022/09/02 12:43:24;;;;;;;0.10;0.10;;;;;;;;;;5050561;28;20025;-59
2022/09/02 12:45:52;;;;;;;0.28;0.28;;;;;;;;;;5048193;28;20040;-58
2022/09/02 12:48:18;;;;;;;0.00;0.00;;;;;;;;;;5049504;28;20020;-59
2022/09/02 12:50:57;;;;;;;0.10;0.10;;;;;;;;;;5050167;28;20029;-59
2022/09/02 12:53:22;;;;;;;0.00;0.00;;;;;;;;;;5049322;28;20040;-59
2022/09/02 12:56:04;;;;;;;0.20;0.20;;;;;;;;;;5049810;28;20405;-60
2022/09/02 12:58:34;;;;;;;0.00;0.00;;;;;;;;;;5049607;28;20291;-61
2022/09/02 13:01:18;;;;;;;0.00;0.00;;;;;;;;;;5047808;28;20665;-59
2022/09/02 13:03:55;;;;;;;1.13;1.08;;;;;;;;;;5049218;28;20100;-59
2022/09/02 13:06:23;;;;;;;0.00;0.00;;;;;;;;;;5049995;28;20032;-59
2022/09/02 13:09:03;;;;;;;0.00;0.00;;;;;;;;;;5048887;28;20339;-59
2022/09/02 13:11:56;;;;;;;0.00;0.00;;;;;;;;;;5049428;28;20385;-59
2022/09/02 13:14:33;;;;;;;0.00;0.00;;;;;;;;;;5049269;28;20021;-58
2022/09/02 13:17:17;;;;;;;0.65;0.32;;;;;;;;;;5049429;28;20383;-58
2022/09/02 13:19:48;;;;;;;0.25;0.25;;;;;;;;;;5048050;28;20024;-59
2022/09/02 13:22:31;;;;;;;0.10;0.10;;;;;;;;;;5049592;28;20496;-59
2022/09/02 13:24:56;;;;;;;0.00;0.00;;;;;;;;;;5049315;28;20020;-59
2022/09/02 13:27:24;;;;;;;0.00;0.00;;;;;;;;;;5049405;28;20033;-58
2022/09/02 13:30:03;;;;;;;0.00;0.00;;;;;;;;;;5047679;28;20271;-59
2022/09/02 13:32:28;;;;;;;;;;;;;;;;;;5049676;28;20120;-59
2022/09/02 13:34:56;;;;;;;0.00;0.00;;;;;;;;;;5050683;28;20000;-58
2022/09/02 13:37:27;;;;;;;0.00;0.00;;;;;;;;;;5049181;28;20024;-59
2022/09/02 13:39:53;;;;;;;0.20;0.20;;;;;;;;;;5048058;28;20037;-59
2022/09/02 13:42:20;;;;;;;0.20;0.20;;;;;;;;;;5049313;28;20458;-59
2022/09/02 13:44:45;;;;;;;0.00;0.00;;;;;;;;;;5048173;28;20891;-59
2022/09/02 13:47:15;;;;;;;0.00;0.00;;;;;;;;;;5047956;28;20017;-60
2022/09/02 13:49:41;;;;;;;0.13;0.13;;;;;;;;;;5047347;28;20473;-60
2022/09/02 13:52:11;;;;;;;0.00;0.00;;;;;;;;;;5047051;28;20028;-60
2022/09/02 13:54:37;;;;;;;0.00;0.00;;;;;;;;;;5048987;28;20504;-60
2022/09/02 13:57:03;;;;;;;0.00;0.00;;;;;;;;;;5047532;28;20048;-60
2022/09/02 13:59:39;;;;;;;0.10;0.10;;;;;;;;;;5051274;28;20025;-62
2022/09/02 14:02:16;;;;;;;0.10;0.10;;;;;;;;;;5046761;28;20013;-61
2022/09/02 14:04:41;;;;;;;0.05;0.05;;;;;;;;;;5048797;28;20017;-62
2022/09/02 14:07:07;;;;;;;0.10;0.10;;;;;;;;;;5050397;28;20026;-61
2022/09/02 14:09:34;;;;;;;0.00;0.00;;;;;;;;;;5050947;28;20032;-61
2022/09/02 14:11:59;;;;;;;0.00;0.00;;;;;;;;;;5053877;28;20025;-60
2022/09/02 14:14:25;;;;;;;0.00;0.00;;;;;;;;;;5049394;28;20031;-59
2022/09/02 14:16:51;;;;;;;0.00;0.00;;;;;;;;;;5049343;28;20355;-61
2022/09/02 14:19:16;;;;;;;0.05;0.05;;;;;;;;;;5050061;28;20025;-62
2022/09/02 14:21:49;;;;;;;0.00;0.00;;;;;;;;;;5051033;28;20462;-61
2022/09/02 14:24:17;;;;;;;0.00;0.00;;;;;;;;;;5050083;28;20048;-60
2022/09/02 14:26:44;;;;;;;0.00;0.00;;;;;;;;;;5046930;28;20048;-62
2022/09/02 14:29:17;;;;;;;0.17;0.17;;;;;;;;;;5048573;28;20478;-62
2022/09/02 14:31:43;;;;;;;1.10;0.50;;;;;;;;;;5049138;28;20343;-62
2022/09/02 14:34:27;;;;;;;0.00;0.00;;;;;;;;;;5049582;28;20099;-62
2022/09/02 14:36:52;;;;;;;0.00;0.00;;;;;;;;;;5047921;28;20029;-63
2022/09/02 14:39:18;;;;;;;0.00;0.00;;;;;;;;;;5048017;28;20048;-62
2022/09/02 14:41:53;;;;;;;0.00;0.00;;;;;;;;;;5047948;28;20736;-60
2022/09/02 14:44:32;;;;;;;0.00;0.00;;;;;;;;;;5048216;28;20029;-61
2022/09/02 14:46:58;;;;;;;;;;;;;;;;;;5048372;28;20496;-61
2022/09/02 14:49:25;;;;;;;0.00;0.00;;;;;;;;;;5051824;28;19909;-60
2022/09/02 14:51:52;;;;;;;1.25;0.20;;;;;;;;;;5049323;28;20314;-60
2022/09/02 14:54:36;;;;;;;8.75;0.30;;;;;;;;;;5050648;28;20037;-60
2022/09/02 14:57:01;;;;;;;0.00;0.00;;;;;;;;;;5048418;28;20506;-60